Benton Harbor, MI (49022)

6:45 AM EDT on September 01, 2015 (GMT -0400)
Bernice Riverview | | Change Station
CLOSE
Current Station
Personal Weather Station
Location: St. Joseph, MI
Elevation: 659 ft
Nearby Weather Stations

Elev 659 ft 42.10 °N, 86.47 °W | Updated 6 minutes ago

Clear
Clear
65.7 °F
Feels Like 65.7 °F
N
0.0
Wind Variable Wind from South

Today
High -- | Low -- °F
--% Chance of Precip.
Yesterday
High -- | Low -- °F
Precip. -- in
7:10 AM 8:19 PM
Waning Gibbous, 90% visible
Pressure 30.06 in
Visibility 1.8 miles
Clouds Clear
Dew Point 64 °F
Humidity 93%
Rainfall 0.00 in
Snow Depth Not available.
UV 0 out of 12
Pollen 10.40 out of 12
Air Quality Not available.
Flu Activity Not available.
SPECI KBEH 011017Z AUTO 00000KT 1 3/4SM BR CLR 19/19 A3006 RMK AO2 T01940189
Pressure 30.06 in
Visibility 1.8 miles
Clouds Clear
Dew Point 64 °F
Humidity 93%
Rainfall 0.00 in
Snow Depth Not available.
UV 0 out of 12
Pollen 10.40 out of 12
Air Quality Not available.
Flu Activity Not available.
SPECI KBEH 011017Z AUTO 00000KT 1 3/4SM BR CLR 19/19 A3006 RMK AO2 T01940189

10-Day Weather Forecast

×

Almanac

Astronomy

Sep. 01, 2015 Rise Set
Actual Time
Civil Twilight
Nautical Twilight
Astronomical Twilight
Moon
Length of Visible Light
Length of Day
Tomorrow will be .
, % of the Moon is Illuminated

Today's Extremes

State Highs State Lows

Community

WunderPhotos

Upload Photos

1,851,501 photos uploaded!

WunderBlogs® & News

Nearby

Air Quality

  Air Quality AQ Index Pollutant
Not available.

Snow Depth

Station Depth Elevation

Earthquake Activity

City Distance Mag. Time & Date
Minimum magnitude displayed is 2.5.

Coastal Water Temperatures

Place Temperature

Stations

Nearby Weather Stations

Station Location Temp. Windchill Dew Point Humidity Wind Precip. Elev Updated Type